Time;durP1;ratioP1;P1;durP2;ratioP2;P2;SDS_P1;SDS_P2;PMS_P1;PMS_P2;Temp;Humidity;BMP_temperature;BMP_pressure;BME280_temperature;BME280_humidity;BME280_pressure;Samples;Min_cycle;Max_cycle;Signal;HPM_P1;HPM_P2
2023/04/26 00:00:01;;;;;;;12.07;2.20;;;;;;;;;;6226176;22;20489;-93
2023/04/26 00:02:28;;;;;;;6.63;1.83;;;;;;;;;;6250864;22;20010;-94
2023/04/26 00:05:04;;;;;;;16.52;2.22;;;;;;;;;;6226222;22;20011;-93
2023/04/26 00:07:41;;;;;;;3.65;1.05;;;;;;;;;;6250990;22;20004;-94
2023/04/26 00:10:09;;;;;;;11.15;2.00;;;;;;;;;;6227978;22;20442;-94
2023/04/26 00:15:33;;;;;;;8.23;2.58;;;;;;;;;;6278297;22;20165;-93
2023/04/26 00:17:59;;;;;;;10.52;2.20;;;;;;;;;;6248143;22;20015;-93
2023/04/26 00:20:29;;;;;;;13.40;3.15;;;;;;;;;;6249031;22;20292;-93
2023/04/26 00:22:55;;;;;;;9.10;1.75;;;;;;;;;;6250400;22;20434;-94
2023/04/26 00:25:21;;;;;;;15.23;1.98;;;;;;;;;;6250043;22;20081;-93
2023/04/26 00:27:47;;;;;;;14.43;2.58;;;;;;;;;;6252690;22;20012;-93
2023/04/26 00:30:14;;;;;;;10.95;2.30;;;;;;;;;;6225861;22;20454;-93
2023/04/26 00:32:49;;;;;;;7.15;2.22;;;;;;;;;;6251682;22;20053;-93
2023/04/26 00:35:17;;;;;;;10.80;1.98;;;;;;;;;;6225283;22;20053;-93
2023/04/26 00:37:55;;;;;;;12.45;1.95;;;;;;;;;;6227422;22;20015;-91
2023/04/26 00:40:27;;;;;;;14.15;2.60;;;;;;;;;;6252986;22;20008;-94
2023/04/26 00:42:57;;;;;;;10.07;2.17;;;;;;;;;;6228772;22;20015;-93
2023/04/26 00:45:24;;;;;;;19.85;2.35;;;;;;;;;;6254108;22;20012;-93
2023/04/26 00:47:51;;;;;;;14.25;2.45;;;;;;;;;;6229941;22;20012;-93
2023/04/26 00:50:17;;;;;;;11.27;2.30;;;;;;;;;;6256710;22;20004;-94
2023/04/26 00:52:47;;;;;;;14.57;2.42;;;;;;;;;;6232917;22;20532;-94
2023/04/26 00:55:17;;;;;;;10.90;2.17;;;;;;;;;;6257563;22;20263;-93
2023/04/26 00:57:55;;;;;;;;;;;;;;;;;;;;;
2023/04/26 01:00:29;;;;;;;5.20;1.60;;;;;;;;;;6279754;22;20019;-94
2023/04/26 01:03:02;;;;;;;15.30;1.92;;;;;;;;;;6227883;22;20003;-95
2023/04/26 01:05:38;;;;;;;6.47;1.95;;;;;;;;;;6250916;22;20091;-94
2023/04/26 01:08:05;;;;;;;14.70;2.33;;;;;;;;;;6253785;22;20502;-95
2023/04/26 01:10:43;;;;;;;13.25;3.45;;;;;;;;;;6254021;22;20070;-94
2023/04/26 01:13:09;;;;;;;7.55;2.35;;;;;;;;;;6252303;22;20007;-94
2023/04/26 01:15:35;;;;;;;11.35;2.53;;;;;;;;;;6252289;22;20007;-94
2023/04/26 01:18:08;;;;;;;9.18;2.15;;;;;;;;;;6251652;22;20327;-94
2023/04/26 01:20:34;;;;;;;11.50;2.45;;;;;;;;;;6253094;22;20554;-94
2023/04/26 01:23:00;;;;;;;9.35;2.10;;;;;;;;;;6226647;22;20007;-94
2023/04/26 01:25:26;;;;;;;7.10;2.17;;;;;;;;;;6223058;22;20012;-95
2023/04/26 01:27:56;;;;;;;4.03;1.95;;;;;;;;;;6223237;22;20397;-94
2023/04/26 01:30:34;;;;;;;3.70;1.85;;;;;;;;;;6223592;22;20071;-94
2023/04/26 01:33:09;;;;;;;10.15;2.28;;;;;;;;;;6252687;22;20083;-94
2023/04/26 01:35:36;;;;;;;8.77;1.67;;;;;;;;;;6222187;22;20418;-94
2023/04/26 01:38:03;;;;;;;7.18;2.28;;;;;;;;;;6249259;22;20366;-94
2023/04/26 01:40:29;;;;;;;12.10;2.30;;;;;;;;;;6227809;22;20071;-95
2023/04/26 01:43:02;;;;;;;8.65;2.58;;;;;;;;;;6248620;22;20003;-93
2023/04/26 01:45:29;;;;;;;10.88;2.45;;;;;;;;;;6227373;22;20004;-93
2023/04/26 01:48:01;;;;;;;11.70;2.53;;;;;;;;;;6254507;22;20059;-94
2023/04/26 01:50:27;;;;;;;7.28;1.90;;;;;;;;;;6231177;22;20350;-94
2023/04/26 01:52:54;;;;;;;16.40;2.88;;;;;;;;;;6252689;22;20023;-93
2023/04/26 01:55:20;;;;;;;9.93;2.50;;;;;;;;;;6255573;22;20035;-93
2023/04/26 01:57:47;;;;;;;9.68;2.63;;;;;;;;;;6229173;22;20011;-92
2023/04/26 02:00:16;;;;;;;4.43;2.17;;;;;;;;;;6257239;22;20075;-94
2023/04/26 02:02:42;;;;;;;15.02;2.42;;;;;;;;;;6232250;22;20399;-94
2023/04/26 02:05:11;;;;;;;12.40;3.05;;;;;;;;;;6255860;22;20000;-93
2023/04/26 02:07:37;;;;;;;14.02;2.17;;;;;;;;;;6254302;22;20014;-94
2023/04/26 02:10:22;;;;;;;13.30;3.53;;;;;;;;;;6230015;22;20008;-94
2023/04/26 02:12:48;;;;;;;11.15;2.28;;;;;;;;;;6255285;22;20011;-93
2023/04/26 02:15:15;;;;;;;7.38;2.30;;;;;;;;;;6230462;22;20008;-94
2023/04/26 02:17:57;;;;;;;16.38;3.67;;;;;;;;;;6255391;22;20531;-93
2023/04/26 02:20:30;;;;;;;17.50;2.47;;;;;;;;;;6255610;22;20008;-94
2023/04/26 02:22:56;;;;;;;10.18;2.35;;;;;;;;;;6230695;22;20089;-93
2023/04/26 02:25:29;;;;;;;13.95;3.33;;;;;;;;;;6228721;22;20060;-94
2023/04/26 02:28:03;;;;;;;12.60;3.47;;;;;;;;;;6253831;22;20003;-94
2023/04/26 02:30:30;;;;;;;10.18;2.22;;;;;;;;;;6253631;22;20027;-94
2023/04/26 02:33:04;;;;;;;15.35;2.80;;;;;;;;;;6253780;22;20015;-93
2023/04/26 02:35:30;;;;;;;11.23;2.72;;;;;;;;;;6255970;22;20008;-93
2023/04/26 02:38:01;;;;;;;12.05;3.13;;;;;;;;;;6255960;22;20023;-94
2023/04/26 02:40:27;;;;;;;10.45;2.00;;;;;;;;;;6229842;22;20206;-93
2023/04/26 02:42:58;;;;;;;9.93;2.17;;;;;;;;;;6279845;22;20149;-94
2023/04/26 02:45:25;;;;;;;14.02;2.33;;;;;;;;;;6255253;22;20461;-94
2023/04/26 02:47:51;;;;;;;10.10;2.45;;;;;;;;;;6227663;22;20008;-94
2023/04/26 02:50:27;;;;;;;9.80;2.53;;;;;;;;;;6230521;22;20026;-94
2023/04/26 02:53:17;;;;;;;6.38;2.03;;;;;;;;;;6230730;22;20004;-93
2023/04/26 02:55:43;;;;;;;11.10;2.22;;;;;;;;;;6198152;22;20015;-94
2023/04/26 02:58:09;;;;;;;7.18;1.90;;;;;;;;;;6255841;22;20003;-93
2023/04/26 03:00:36;;;;;;;12.73;1.98;;;;;;;;;;6255000;22;20003;-94
2023/04/26 03:03:08;;;;;;;11.15;2.03;;;;;;;;;;6230594;22;20027;-94
2023/04/26 03:05:37;;;;;;;6.95;1.83;;;;;;;;;;6229357;22;20466;-94
2023/04/26 03:08:03;;;;;;;6.13;2.10;;;;;;;;;;6230078;22;20004;-94
2023/04/26 03:10:36;;;;;;;11.05;2.13;;;;;;;;;;6254265;22;20007;-94
2023/04/26 03:13:04;;;;;;;13.43;2.08;;;;;;;;;;6255717;22;20003;-94
2023/04/26 03:15:30;;;;;;;20.30;2.55;;;;;;;;;;6256575;22;20008;-94
2023/04/26 03:17:59;;;;;;;12.15;2.45;;;;;;;;;;6256147;22;20011;-94
2023/04/26 03:20:28;;;;;;;9.43;1.70;;;;;;;;;;6255489;22;20019;-93
2023/04/26 03:22:54;;;;;;;5.82;1.90;;;;;;;;;;6229060;22;20481;-94
2023/04/26 03:25:21;;;;;;;11.20;2.30;;;;;;;;;;6231585;22;20020;-94
2023/04/26 03:27:54;;;;;;;11.02;2.20;;;;;;;;;;6230806;22;20067;-93
2023/04/26 03:30:32;;;;;;;3.55;1.85;;;;;;;;;;6255965;22;20022;-93
2023/04/26 03:32:58;;;;;;;8.65;2.22;;;;;;;;;;6231476;22;20080;-93
2023/04/26 03:35:27;;;;;;;9.65;1.73;;;;;;;;;;6234105;22;20030;-94
2023/04/26 03:37:58;;;;;;;11.93;3.05;;;;;;;;;;6261049;22;20063;-93
2023/04/26 03:40:30;;;;;;;9.20;1.95;;;;;;;;;;6236112;22;20024;-92
2023/04/26 03:42:58;;;;;;;7.82;1.77;;;;;;;;;;6237422;22;20008;-93
2023/04/26 03:45:25;;;;;;;6.05;1.80;;;;;;;;;;6235870;22;20015;-94
2023/04/26 03:47:52;;;;;;;9.25;2.53;;;;;;;;;;6236853;22;20027;-94
2023/04/26 03:50:43;;;;;;;9.15;2.00;;;;;;;;;;6238595;22;20016;-93
2023/04/26 03:53:10;;;;;;;8.10;2.53;;;;;;;;;;6248449;22;20499;-93
2023/04/26 03:55:36;;;;;;;7.05;1.95;;;;;;;;;;6257618;22;20342;-93
2023/04/26 03:58:06;;;;;;;6.07;1.98;;;;;;;;;;6256941;22;19995;-94
2023/04/26 04:00:36;;;;;;;7.88;2.00;;;;;;;;;;6232760;22;20019;-94
2023/04/26 04:03:02;;;;;;;11.15;3.25;;;;;;;;;;6259128;22;20030;-94
2023/04/26 04:05:46;;;;;;;7.43;2.08;;;;;;;;;;6256511;22;20145;-93
2023/04/26 04:08:13;;;;;;;3.97;1.73;;;;;;;;;;6234177;22;20027;-93
2023/04/26 04:10:41;;;;;;;5.10;1.75;;;;;;;;;;6263960;22;20035;-94
2023/04/26 04:13:07;;;;;;;4.35;1.40;;;;;;;;;;6242315;22;20006;-94
2023/04/26 04:15:34;;;;;;;5.88;1.75;;;;;;;;;;6267527;22;20067;-93
2023/04/26 04:18:18;;;;;;;4.18;1.05;;;;;;;;;;6243452;22;20188;-93
2023/04/26 04:20:45;;;;;;;5.70;1.55;;;;;;;;;;6269451;22;20007;-93
2023/04/26 04:23:11;;;;;;;5.05;1.55;;;;;;;;;;6271390;22;20018;-93
2023/04/26 04:25:50;;;;;;;4.45;0.75;;;;;;;;;;6295845;22;20011;-93
2023/04/26 04:28:16;;;;;;;2.72;0.90;;;;;;;;;;6261731;22;20145;-93
2023/04/26 04:30:43;;;;;;;5.25;1.63;;;;;;;;;;6237018;22;20058;-95
2023/04/26 04:33:13;;;;;;;3.58;1.45;;;;;;;;;;6236718;22;20063;-93
2023/04/26 04:35:45;;;;;;;3.97;1.65;;;;;;;;;;6234164;22;20436;-93
2023/04/26 04:38:13;;;;;;;4.43;1.70;;;;;;;;;;6258061;22;20444;-94
2023/04/26 04:40:40;;;;;;;6.47;1.40;;;;;;;;;;6231506;22;20424;-94
2023/04/26 04:43:07;;;;;;;9.93;2.53;;;;;;;;;;6256385;22;20010;-93
2023/04/26 04:45:34;;;;;;;5.07;1.83;;;;;;;;;;6254258;22;19999;-94
2023/04/26 04:48:23;;;;;;;17.13;2.20;;;;;;;;;;6257472;22;20006;-94
2023/04/26 04:50:51;;;;;;;9.63;2.20;;;;;;;;;;6258250;22;20460;-93
2023/04/26 04:53:20;;;;;;;12.85;2.30;;;;;;;;;;6255838;22;20018;-93
2023/04/26 04:55:48;;;;;;;7.05;2.35;;;;;;;;;;6231998;22;20012;-93
2023/04/26 04:58:14;;;;;;;6.35;1.67;;;;;;;;;;6255871;22;20003;-93
2023/04/26 05:00:40;;;;;;;5.55;1.60;;;;;;;;;;6255194;22;20075;-93
2023/04/26 05:03:08;;;;;;;6.43;2.08;;;;;;;;;;6253245;22;20014;-94
2023/04/26 05:05:40;;;;;;;8.85;1.92;;;;;;;;;;6231721;22;20012;-94
2023/04/26 05:08:07;;;;;;;5.47;1.92;;;;;;;;;;6253699;22;20011;-94
2023/04/26 05:10:34;;;;;;;7.82;2.13;;;;;;;;;;6253800;22;20101;-93
2023/04/26 05:13:10;;;;;;;7.13;2.25;;;;;;;;;;6254327;22;20061;-93
2023/04/26 05:15:36;;;;;;;5.65;1.85;;;;;;;;;;6253807;22;20034;-93
2023/04/26 05:18:04;;;;;;;13.85;1.95;;;;;;;;;;6276831;22;20454;-94
2023/04/26 05:20:31;;;;;;;8.82;2.00;;;;;;;;;;6226525;22;20015;-93
2023/04/26 05:22:57;;;;;;;6.32;1.63;;;;;;;;;;6250788;22;20012;-93
2023/04/26 05:25:23;;;;;;;9.23;2.80;;;;;;;;;;6253011;22;20373;-93
2023/04/26 05:27:52;;;;;;;12.98;2.38;;;;;;;;;;6227659;22;20425;-94
2023/04/26 05:30:21;;;;;;;7.57;2.15;;;;;;;;;;6226347;22;20169;-93
2023/04/26 05:32:50;;;;;;;14.00;2.17;;;;;;;;;;6227181;22;20038;-94
2023/04/26 05:35:17;;;;;;;8.68;1.85;;;;;;;;;;6227215;22;20098;-94
2023/04/26 05:37:43;;;;;;;9.40;2.85;;;;;;;;;;6252096;22;20003;-94
2023/04/26 05:40:12;;;;;;;15.13;2.10;;;;;;;;;;6226623;22;20448;-93
2023/04/26 05:42:39;;;;;;;5.30;2.40;;;;;;;;;;6258752;22;20003;-94
2023/04/26 05:45:06;;;;;;;11.43;4.15;;;;;;;;;;6253084;22;20018;-93
2023/04/26 05:47:32;;;;;;;5.53;2.80;;;;;;;;;;6253265;22;20079;-93
2023/04/26 05:49:58;;;;;;;4.47;1.30;;;;;;;;;;6230775;22;20011;-93
2023/04/26 05:52:24;;;;;;;10.85;2.35;;;;;;;;;;6229871;22;20031;-94
2023/04/26 06:07:50;;;;;;;11.75;2.35;;;;;;;;;;5852124;22;9468543;-93
2023/04/26 06:10:18;;;;;;;7.25;1.95;;;;;;;;;;6202009;23;20023;-93
2023/04/26 06:12:45;;;;;;;9.98;1.98;;;;;;;;;;6229549;23;20008;-93
2023/04/26 06:15:11;;;;;;;5.22;1.85;;;;;;;;;;6204277;23;20119;-93
2023/04/26 06:17:41;;;;;;;7.65;2.30;;;;;;;;;;6230476;23;20084;-93
2023/04/26 06:20:11;;;;;;;11.63;2.22;;;;;;;;;;6229771;23;20004;-93
2023/04/26 06:22:39;;;;;;;11.82;2.17;;;;;;;;;;6231139;23;20008;-93
2023/04/26 06:25:08;;;;;;;7.47;2.65;;;;;;;;;;6230332;23;20019;-93
2023/04/26 06:27:37;;;;;;;12.68;1.65;;;;;;;;;;6205475;23;20015;-93
2023/04/26 06:30:10;;;;;;;7.85;1.70;;;;;;;;;;6211398;23;20019;-92
2023/04/26 06:32:38;;;;;;;6.72;2.47;;;;;;;;;;6231026;23;20065;-93
2023/04/26 06:35:07;;;;;;;2.60;1.35;;;;;;;;;;6234262;23;20012;-93
2023/04/26 06:40:31;;;;;;;9.40;2.35;;;;;;;;;;6213237;23;20027;-93
2023/04/26 06:42:57;;;;;;;4.35;1.70;;;;;;;;;;6210889;23;20004;-93
2023/04/26 06:45:33;;;;;;;10.35;2.17;;;;;;;;;;6208831;23;20012;-93
2023/04/26 06:48:30;;;;;;;3.70;1.52;;;;;;;;;;6235832;23;20015;-93
2023/04/26 06:50:57;;;;;;;7.13;1.77;;;;;;;;;;6234476;23;20012;-92
2023/04/26 06:53:33;;;;;;;9.55;2.20;;;;;;;;;;6210769;23;20019;-92
2023/04/26 06:56:02;;;;;;;13.02;3.20;;;;;;;;;;6208545;23;20015;-93
2023/04/26 06:58:40;;;;;;;6.38;2.25;;;;;;;;;;6204546;23;20008;-93
2023/04/26 07:01:42;;;;;;;7.10;2.00;;;;;;;;;;6208380;23;20013;-92
2023/04/26 07:04:11;;;;;;;4.63;1.27;;;;;;;;;;6205817;23;20004;-92
2023/04/26 07:06:46;;;;;;;11.82;1.63;;;;;;;;;;6172467;22;20077;-92
2023/04/26 07:09:13;;;;;;;5.32;1.83;;;;;;;;;;6193946;23;20013;-93
2023/04/26 07:11:39;;;;;;;4.50;1.80;;;;;;;;;;6165295;23;20013;-92
2023/04/26 07:14:05;;;;;;;5.75;1.70;;;;;;;;;;6187051;23;20009;-93
2023/04/26 07:16:37;;;;;;;2.50;1.35;;;;;;;;;;6160284;23;20013;-92
2023/04/26 07:19:21;;;;;;;7.85;1.52;;;;;;;;;;6164881;23;20329;-93
2023/04/26 07:21:48;;;;;;;3.83;1.70;;;;;;;;;;6163695;23;20005;-93
2023/04/26 07:24:14;;;;;;;6.85;1.33;;;;;;;;;;6163946;23;20342;-92
2023/04/26 07:26:43;;;;;;;11.43;2.38;;;;;;;;;;6188146;23;20124;-93
2023/04/26 07:29:17;;;;;;;7.72;1.92;;;;;;;;;;6165760;23;20012;-93
2023/04/26 07:31:59;;;;;;;6.90;1.67;;;;;;;;;;6163942;23;20009;-93
2023/04/26 07:34:29;;;;;;;8.27;2.45;;;;;;;;;;6187423;23;20013;-93
2023/04/26 07:36:55;;;;;;;6.55;1.75;;;;;;;;;;6189539;23;20091;-92
2023/04/26 07:39:25;;;;;;;8.23;1.85;;;;;;;;;;6188402;23;20004;-92
2023/04/26 07:41:54;;;;;;;4.88;1.60;;;;;;;;;;6192697;23;20020;-92
2023/04/26 07:44:21;;;;;;;4.03;1.67;;;;;;;;;;6191325;23;20005;-93
2023/04/26 07:46:47;;;;;;;6.40;2.20;;;;;;;;;;6191352;23;20017;-93
2023/04/26 07:49:13;;;;;;;3.80;1.45;;;;;;;;;;6167294;23;20016;-93
2023/04/26 07:51:43;;;;;;;4.45;1.77;;;;;;;;;;6189038;23;20009;-92
2023/04/26 07:54:09;;;;;;;5.80;1.95;;;;;;;;;;6192532;23;20482;-91
2023/04/26 07:56:37;;;;;;;8.93;2.42;;;;;;;;;;6168127;23;20013;-90
2023/04/26 07:59:03;;;;;;;11.80;1.95;;;;;;;;;;6179824;23;20005;-91
2023/04/26 08:01:43;;;;;;;4.15;1.70;;;;;;;;;;6204685;23;19993;-91
2023/04/26 08:04:12;;;;;;;6.50;2.15;;;;;;;;;;6201835;23;20073;-91
2023/04/26 08:06:43;;;;;;;6.55;3.38;;;;;;;;;;6184030;22;20004;-91
2023/04/26 08:09:11;;;;;;;13.32;4.03;;;;;;;;;;6175521;23;20005;-92
2023/04/26 08:11:40;;;;;;;12.85;2.05;;;;;;;;;;6175086;23;20014;-92
2023/04/26 08:14:07;;;;;;;10.93;2.40;;;;;;;;;;6171465;23;20407;-92
2023/04/26 08:16:37;;;;;;;7.30;1.73;;;;;;;;;;6169831;23;20047;-92
2023/04/26 08:19:03;;;;;;;8.75;1.92;;;;;;;;;;6171338;23;20004;-92
2023/04/26 08:21:30;;;;;;;6.45;1.88;;;;;;;;;;6171098;23;20004;-92
2023/04/26 08:23:59;;;;;;;8.60;2.15;;;;;;;;;;6171893;23;20009;-92
2023/04/26 08:26:26;;;;;;;9.23;2.05;;;;;;;;;;6198389;23;20481;-92
2023/04/26 08:28:52;;;;;;;3.95;1.42;;;;;;;;;;6171205;23;20028;-93
2023/04/26 08:31:18;;;;;;;4.88;2.30;;;;;;;;;;6170501;23;20012;-92
2023/04/26 08:33:44;;;;;;;6.60;1.85;;;;;;;;;;6196592;23;20062;-92
2023/04/26 08:36:11;;;;;;;5.65;2.17;;;;;;;;;;6171409;23;20447;-93
2023/04/26 08:38:37;;;;;;;7.55;2.08;;;;;;;;;;6171784;23;20012;-93
2023/04/26 08:41:05;;;;;;;5.40;2.50;;;;;;;;;;6174238;23;20091;-92
2023/04/26 08:43:31;;;;;;;14.02;3.22;;;;;;;;;;6170396;23;20012;-93
2023/04/26 08:46:02;;;;;;;4.63;2.17;;;;;;;;;;6199751;23;20307;-92
2023/04/26 08:48:33;;;;;;;10.27;2.72;;;;;;;;;;6197148;23;20009;-93
2023/04/26 08:51:00;;;;;;;17.58;3.20;;;;;;;;;;6195739;23;20004;-92
2023/04/26 08:53:31;;;;;;;8.68;1.92;;;;;;;;;;6196486;23;20004;-93
2023/04/26 08:56:04;;;;;;;5.57;1.77;;;;;;;;;;6169863;23;20008;-92
2023/04/26 08:58:59;;;;;;;10.15;1.88;;;;;;;;;;6194295;23;20019;-92
2023/04/26 09:01:27;;;;;;;8.35;1.55;;;;;;;;;;6184384;23;20077;-93
2023/04/26 09:04:00;;;;;;;6.55;1.60;;;;;;;;;;6192555;23;20009;-92
2023/04/26 09:06:27;;;;;;;9.90;1.55;;;;;;;;;;6223881;22;20005;-91
2023/04/26 09:08:54;;;;;;;7.53;2.05;;;;;;;;;;6140452;23;20025;-92
2023/04/26 09:11:21;;;;;;;6.00;1.55;;;;;;;;;;6193316;23;20013;-93
2023/04/26 09:13:51;;;;;;;6.57;1.88;;;;;;;;;;6145304;23;20078;-92
2023/04/26 09:16:17;;;;;;;4.20;1.58;;;;;;;;;;6140070;23;20444;-92
2023/04/26 09:18:56;;;;;;;9.38;1.70;;;;;;;;;;6141998;23;20005;-92
2023/04/26 09:21:56;;;;;;;6.25;1.70;;;;;;;;;;6189542;23;20001;-92
2023/04/26 09:24:22;;;;;;;4.82;1.60;;;;;;;;;;6103214;23;20005;-92
2023/04/26 09:27:00;;;;;;;11.30;2.05;;;;;;;;;;6140642;23;20076;-92
2023/04/26 09:29:27;;;;;;;4.03;1.25;;;;;;;;;;6188200;23;20027;-92
2023/04/26 09:32:02;;;;;;;9.40;2.20;;;;;;;;;;6187586;23;20095;-92
2023/04/26 09:34:44;;;;;;;8.52;1.67;;;;;;;;;;6186644;23;20013;-92
2023/04/26 09:37:19;;;;;;;6.32;2.22;;;;;;;;;;6190274;23;20009;-92
2023/04/26 09:39:45;;;;;;;4.25;2.58;;;;;;;;;;6192163;23;20009;-92
2023/04/26 09:42:14;;;;;;;8.57;2.22;;;;;;;;;;6142421;23;20383;-91
2023/04/26 09:44:48;;;;;;;8.38;2.15;;;;;;;;;;6192482;23;19986;-92
2023/04/26 09:47:56;;;;;;;8.35;2.42;;;;;;;;;;6143308;23;20411;-92
2023/04/26 09:50:09;;;;;;;8.35;1.88;;;;;;;;;;6157915;23;20063;-92
2023/04/26 09:52:51;;;;;;;8.50;2.38;;;;;;;;;;6140307;23;20013;-92
2023/04/26 09:55:28;;;;;;;12.13;1.92;;;;;;;;;;6143318;23;20013;-92
2023/04/26 09:57:57;;;;;;;9.48;2.08;;;;;;;;;;6189875;23;20383;-92
2023/04/26 10:00:25;;;;;;;8.73;2.40;;;;;;;;;;6188245;23;20385;-92
2023/04/26 10:03:01;;;;;;;6.07;1.48;;;;;;;;;;6195386;23;20005;-92
2023/04/26 10:05:37;;;;;;;5.97;1.58;;;;;;;;;;6142994;23;20024;-92
2023/04/26 10:08:17;;;;;;;3.83;1.65;;;;;;;;;;6223940;22;20050;-91
2023/04/26 10:10:54;;;;;;;1.88;1.00;;;;;;;;;;6191232;22;20303;-92
2023/04/26 10:13:20;;;;;;;8.35;1.08;;;;;;;;;;6164267;23;20137;-92
2023/04/26 10:15:48;;;;;;;5.88;1.30;;;;;;;;;;6188063;23;20005;-92
2023/04/26 10:18:14;;;;;;;7.35;1.13;;;;;;;;;;6163099;23;20422;-92
2023/04/26 10:20:43;;;;;;;7.68;1.20;;;;;;;;;;6189504;23;20025;-92
2023/04/26 10:23:16;;;;;;;4.20;1.17;;;;;;;;;;6188733;23;20016;-93
2023/04/26 10:25:42;;;;;;;5.20;1.23;;;;;;;;;;6188640;23;20406;-93
2023/04/26 10:28:08;;;;;;;4.10;1.20;;;;;;;;;;6164044;23;20527;-91
2023/04/26 10:31:10;;;;;;;8.43;1.60;;;;;;;;;;6196520;23;19993;-92
2023/04/26 10:33:37;;;;;;;5.88;1.40;;;;;;;;;;6170421;23;20013;-92
2023/04/26 10:36:05;;;;;;;5.05;1.30;;;;;;;;;;6171936;23;20029;-92
2023/04/26 10:38:35;;;;;;;7.28;1.63;;;;;;;;;;6195928;23;20053;-92
2023/04/26 10:41:22;;;;;;;6.03;0.93;;;;;;;;;;6195047;23;20460;-91
2023/04/26 10:43:51;;;;;;;5.10;0.85;;;;;;;;;;6191024;23;20036;-92
2023/04/26 10:46:35;;;;;;;4.85;1.25;;;;;;;;;;6191123;23;20001;-92
2023/04/26 10:49:12;;;;;;;5.82;1.42;;;;;;;;;;6191685;23;20012;-92
2023/04/26 10:51:38;;;;;;;7.28;1.73;;;;;;;;;;6193242;23;20087;-92
2023/04/26 10:54:13;;;;;;;6.50;1.83;;;;;;;;;;6167705;23;20024;-93
2023/04/26 10:56:46;;;;;;;2.10;1.20;;;;;;;;;;6193826;23;20035;-91
2023/04/26 10:59:19;;;;;;;6.55;1.50;;;;;;;;;;6193493;23;20088;-92
2023/04/26 11:01:46;;;;;;;8.20;1.83;;;;;;;;;;6192410;23;20017;-92
2023/04/26 11:04:17;;;;;;;6.55;1.70;;;;;;;;;;6168972;23;20035;-92
2023/04/26 11:06:50;;;;;;;5.85;1.38;;;;;;;;;;6191466;23;20012;-92
2023/04/26 11:09:35;;;;;;;4.70;1.40;;;;;;;;;;6192680;23;20009;-93
2023/04/26 11:12:11;;;;;;;6.28;1.20;;;;;;;;;;6172465;22;20048;-93
2023/04/26 11:14:37;;;;;;;2.72;1.23;;;;;;;;;;6191769;23;20302;-93
2023/04/26 11:17:05;;;;;;;5.90;1.30;;;;;;;;;;6192674;23;20407;-93
2023/04/26 11:19:32;;;;;;;7.90;1.90;;;;;;;;;;6194139;23;20280;-93
2023/04/26 11:22:08;;;;;;;2.83;1.42;;;;;;;;;;6196141;23;20052;-92
2023/04/26 11:24:35;;;;;;;4.75;1.38;;;;;;;;;;6190686;23;20016;-93
2023/04/26 11:27:12;;;;;;;1.92;1.27;;;;;;;;;;6170528;23;20013;-93
2023/04/26 11:29:45;;;;;;;3.58;1.20;;;;;;;;;;6193849;23;20016;-92
2023/04/26 11:32:24;;;;;;;5.32;1.27;;;;;;;;;;6168932;23;20347;-92
2023/04/26 11:34:50;;;;;;;3.38;1.13;;;;;;;;;;6168545;23;20413;-93
2023/04/26 11:37:16;;;;;;;2.72;1.27;;;;;;;;;;6194452;23;20013;-91
2023/04/26 11:39:46;;;;;;;5.40;1.38;;;;;;;;;;6177693;23;20005;-93
2023/04/26 11:42:15;;;;;;;4.20;1.25;;;;;;;;;;6201677;23;20009;-92
2023/04/26 11:44:51;;;;;;;6.03;1.40;;;;;;;;;;6174919;23;20009;-92
2023/04/26 11:47:18;;;;;;;2.50;1.20;;;;;;;;;;6174620;23;20044;-92
2023/04/26 11:49:44;;;;;;;3.92;1.40;;;;;;;;;;6169512;23;20045;-92
2023/04/26 11:52:10;;;;;;;3.03;1.65;;;;;;;;;;6168255;23;20024;-93
2023/04/26 11:54:41;;;;;;;6.43;1.27;;;;;;;;;;6165861;23;20023;-93
2023/04/26 11:57:14;;;;;;;3.25;1.20;;;;;;;;;;6192375;23;20011;-92
2023/04/26 11:59:47;;;;;;;6.43;1.67;;;;;;;;;;6190419;23;20001;-93
2023/04/26 12:02:13;;;;;;;7.72;1.55;;;;;;;;;;6190332;23;20530;-91
2023/04/26 12:04:43;;;;;;;4.20;1.50;;;;;;;;;;6164520;23;20005;-91
2023/04/26 12:07:28;;;;;;;4.55;1.70;;;;;;;;;;6167614;23;20036;-93
2023/04/26 12:09:54;;;;;;;4.22;1.52;;;;;;;;;;6195964;22;20016;-92
2023/04/26 12:12:23;;;;;;;3.15;1.25;;;;;;;;;;6165817;23;20079;-91
2023/04/26 12:14:55;;;;;;;3.67;1.13;;;;;;;;;;6221223;23;20005;-96
2023/04/26 12:17:22;;;;;;;3.38;1.35;;;;;;;;;;6169569;23;20008;-95
2023/04/26 12:19:52;;;;;;;4.32;1.42;;;;;;;;;;6217639;23;20001;-95
2023/04/26 12:22:23;;;;;;;6.90;2.28;;;;;;;;;;6216939;23;20019;-96
2023/04/26 12:25:04;;;;;;;4.45;1.60;;;;;;;;;;6216820;23;20079;-96
2023/04/26 12:27:31;;;;;;;8.82;1.73;;;;;;;;;;6216163;23;20229;-96
2023/04/26 12:29:57;;;;;;;10.35;1.52;;;;;;;;;;6169600;23;20072;-96
2023/04/26 12:32:23;;;;;;;4.20;1.58;;;;;;;;;;6171393;23;20013;-96
2023/04/26 12:34:52;;;;;;;6.35;1.30;;;;;;;;;;6170672;23;20015;-95
2023/04/26 12:37:18;;;;;;;9.40;1.55;;;;;;;;;;6218318;23;20063;-96
2023/04/26 12:39:53;;;;;;;4.00;1.45;;;;;;;;;;6167985;23;20037;-95
2023/04/26 12:42:20;;;;;;;9.77;1.33;;;;;;;;;;6215834;23;20005;-96
2023/04/26 12:44:49;;;;;;;3.72;1.77;;;;;;;;;;6167408;23;20092;-96
2023/04/26 12:47:26;;;;;;;8.00;1.77;;;;;;;;;;6168104;23;20015;-96
2023/04/26 12:49:52;;;;;;;4.38;1.92;;;;;;;;;;6167978;23;20035;-95
2023/04/26 12:55:33;;;;;;;7.60;2.20;;;;;;;;;;6192950;23;20024;-96
2023/04/26 12:58:00;;;;;;;14.85;2.47;;;;;;;;;;6193327;23;20009;-94
2023/04/26 13:00:26;;;;;;;10.98;2.28;;;;;;;;;;6217221;23;20015;-95
2023/04/26 13:02:59;;;;;;;10.05;2.00;;;;;;;;;;6169567;23;20004;-94
2023/04/26 13:08:30;;;;;;;7.85;1.75;;;;;;;;;;6098802;23;20069;-96
2023/04/26 13:10:58;;;;;;;3.83;1.10;;;;;;;;;;6053836;23;20026;-95
2023/04/26 13:13:29;;;;;;;5.78;2.08;;;;;;;;;;6137467;23;20016;-95
2023/04/26 13:16:05;;;;;;;9.00;1.52;;;;;;;;;;6167548;23;20462;-96
2023/04/26 13:18:32;;;;;;;6.35;1.30;;;;;;;;;;6166137;23;20011;-95
2023/04/26 13:21:13;;;;;;;5.20;1.60;;;;;;;;;;6167655;23;20001;-95
2023/04/26 13:23:45;;;;;;;7.38;1.60;;;;;;;;;;6165481;23;19981;-95
2023/04/26 13:26:20;;;;;;;9.68;1.65;;;;;;;;;;6151603;23;20009;-95
2023/04/26 13:28:47;;;;;;;7.35;1.40;;;;;;;;;;6167120;23;20009;-95
2023/04/26 13:31:16;;;;;;;6.30;1.65;;;;;;;;;;6164709;23;20024;-95
2023/04/26 13:33:48;;;;;;;4.70;1.73;;;;;;;;;;6166385;23;20013;-95
2023/04/26 13:36:15;;;;;;;7.93;1.65;;;;;;;;;;6167261;23;20356;-96
2023/04/26 13:38:42;;;;;;;7.80;1.75;;;;;;;;;;6139428;23;20523;-96
2023/04/26 13:41:24;;;;;;;9.50;1.52;;;;;;;;;;6166098;23;20067;-95
2023/04/26 13:43:50;;;;;;;5.63;1.50;;;;;;;;;;6162976;23;20009;-96
2023/04/26 13:49:05;;;;;;;2.65;1.23;;;;;;;;;;6173945;23;20051;-96
2023/04/26 13:54:20;;;;;;;6.85;1.92;;;;;;;;;;6163591;23;20071;-96
2023/04/26 13:56:49;;;;;;;3.50;1.65;;;;;;;;;;6170996;23;20016;-96
2023/04/26 13:59:15;;;;;;;5.45;1.52;;;;;;;;;;6169899;23;20012;-95
2023/04/26 14:01:57;;;;;;;5.90;1.67;;;;;;;;;;6169201;23;20336;-96
2023/04/26 14:04:24;;;;;;;8.38;2.08;;;;;;;;;;6165692;23;20009;-96
2023/04/26 14:06:53;;;;;;;8.38;1.80;;;;;;;;;;6168020;23;20099;-96
2023/04/26 14:09:21;;;;;;;8.77;1.80;;;;;;;;;;6140871;23;20324;-96
2023/04/26 14:11:48;;;;;;;3.83;1.60;;;;;;;;;;6168605;22;20032;-96
2023/04/26 14:14:14;;;;;;;7.68;2.20;;;;;;;;;;6166133;23;20048;-96
2023/04/26 14:17:33;;;;;;;;;;;;;;;;;;;;;
2023/04/26 14:19:30;;;;;;;6.18;1.40;;;;;;;;;;6179587;23;20024;-95
2023/04/26 14:21:58;;;;;;;3.75;1.20;;;;;;;;;;6189862;23;20047;-94
2023/04/26 14:24:24;;;;;;;7.93;1.77;;;;;;;;;;6188823;23;20015;-96
2023/04/26 14:26:50;;;;;;;13.18;2.28;;;;;;;;;;6168244;23;20069;-95
2023/04/26 14:29:16;;;;;;;8.38;2.05;;;;;;;;;;6165625;23;20076;-94
2023/04/26 14:31:43;;;;;;;5.28;1.83;;;;;;;;;;6165078;23;20009;-95
2023/04/26 14:34:10;;;;;;;5.03;1.70;;;;;;;;;;6167788;23;20072;-95
2023/04/26 14:36:36;;;;;;;7.68;2.22;;;;;;;;;;6166423;23;20280;-95
2023/04/26 14:39:02;;;;;;;6.60;1.80;;;;;;;;;;6189480;23;20009;-94
2023/04/26 14:41:29;;;;;;;9.13;1.90;;;;;;;;;;6192013;23;20132;-96
2023/04/26 14:43:55;;;;;;;4.20;1.65;;;;;;;;;;6165673;23;20012;-95
2023/04/26 14:46:36;;;;;;;5.05;1.25;;;;;;;;;;6166631;23;20013;-95
2023/04/26 14:49:02;;;;;;;9.27;1.50;;;;;;;;;;6191634;23;20005;-95
2023/04/26 14:51:28;;;;;;;9.90;2.45;;;;;;;;;;6167904;23;20436;-95
2023/04/26 14:53:55;;;;;;;4.82;1.88;;;;;;;;;;6192689;23;20440;-95
2023/04/26 14:56:24;;;;;;;9.85;1.80;;;;;;;;;;6167995;23;20024;-96
2023/04/26 14:58:55;;;;;;;9.60;2.30;;;;;;;;;;6167366;23;20069;-96
2023/04/26 15:01:21;;;;;;;6.18;1.73;;;;;;;;;;6193028;23;20005;-95
2023/04/26 15:03:52;;;;;;;6.57;1.95;;;;;;;;;;6166215;23;20009;-95
2023/04/26 15:06:18;;;;;;;1.55;1.20;;;;;;;;;;6191275;23;20099;-95
2023/04/26 15:08:44;;;;;;;5.88;1.77;;;;;;;;;;6164788;23;20340;-95
2023/04/26 15:11:13;;;;;;;5.95;1.77;;;;;;;;;;6195668;22;20021;-94
2023/04/26 15:13:39;;;;;;;2.53;1.70;;;;;;;;;;6189852;23;20013;-95
2023/04/26 15:16:05;;;;;;;203.30;111.65;;;;;;;;;;6163095;23;20013;-92
2023/04/26 15:18:33;;;;;;;140.93;67.43;;;;;;;;;;6189815;23;20346;-96
2023/04/26 15:20:59;;;;;;;49.58;26.13;;;;;;;;;;6192559;23;20009;-95
2023/04/26 15:23:25;;;;;;;5.30;2.95;;;;;;;;;;6192440;23;20016;-96
2023/04/26 15:25:53;;;;;;;7.78;1.63;;;;;;;;;;6202350;23;20089;-95
2023/04/26 15:28:19;;;;;;;6.50;1.60;;;;;;;;;;6204777;23;19993;-96